sensor_id;sensor_type;location;lat;lon;timestamp;temperature;humidity
1181;DHT22;579;52.046;8.532;2022-07-24T00:00:53;18.40;1.00
1181;DHT22;579;52.046;8.532;2022-07-24T00:03:20;18.40;1.00
1181;DHT22;579;52.046;8.532;2022-07-24T00:05:47;18.30;1.00
1181;DHT22;579;52.046;8.532;2022-07-24T00:08:13;18.30;1.00
1181;DHT22;579;52.046;8.532;2022-07-24T00:13:17;18.10;1.00
1181;DHT22;579;52.046;8.532;2022-07-24T00:15:44;18.20;1.00
1181;DHT22;579;52.046;8.532;2022-07-24T00:18:12;18.30;1.00
1181;DHT22;579;52.046;8.532;2022-07-24T00:20:39;18.20;1.00
1181;DHT22;579;52.046;8.532;2022-07-24T00:23:08;18.20;1.00
1181;DHT22;579;52.046;8.532;2022-07-24T00:25:35;18.10;1.00
1181;DHT22;579;52.046;8.532;2022-07-24T00:28:01;18.20;1.00
1181;DHT22;579;52.046;8.532;2022-07-24T00:33:09;18.20;1.00
1181;DHT22;579;52.046;8.532;2022-07-24T00:35:36;18.10;1.00
1181;DHT22;579;52.046;8.532;2022-07-24T00:38:03;17.90;1.00
1181;DHT22;579;52.046;8.532;2022-07-24T00:40:31;18.00;1.00
1181;DHT22;579;52.046;8.532;2022-07-24T00:43:00;18.00;1.00
1181;DHT22;579;52.046;8.532;2022-07-24T00:45:28;18.30;1.00
1181;DHT22;579;52.046;8.532;2022-07-24T00:47:54;18.00;1.00
1181;DHT22;579;52.046;8.532;2022-07-24T00:52:57;18.00;1.00
1181;DHT22;579;52.046;8.532;2022-07-24T00:55:24;18.00;1.00
1181;DHT22;579;52.046;8.532;2022-07-24T00:57:51;17.90;1.00
1181;DHT22;579;52.046;8.532;2022-07-24T01:00:20;17.70;1.00
1181;DHT22;579;52.046;8.532;2022-07-24T01:02:48;17.70;1.00
1181;DHT22;579;52.046;8.532;2022-07-24T01:05:15;17.70;1.00
1181;DHT22;579;52.046;8.532;2022-07-24T01:07:43;17.70;1.00
1181;DHT22;579;52.046;8.532;2022-07-24T01:12:45;17.70;1.00
1181;DHT22;579;52.046;8.532;2022-07-24T01:15:12;17.70;1.00
1181;DHT22;579;52.046;8.532;2022-07-24T01:17:40;17.70;1.00
1181;DHT22;579;52.046;8.532;2022-07-24T01:20:09;17.60;1.00
1181;DHT22;579;52.046;8.532;2022-07-24T01:22:37;17.70;1.00
1181;DHT22;579;52.046;8.532;2022-07-24T01:25:04;17.50;1.00
1181;DHT22;579;52.046;8.532;2022-07-24T01:27:31;17.40;1.00
1181;DHT22;579;52.046;8.532;2022-07-24T01:33:11;17.40;1.00
1181;DHT22;579;52.046;8.532;2022-07-24T01:35:37;17.40;1.00
1181;DHT22;579;52.046;8.532;2022-07-24T01:38:04;17.60;1.00
1181;DHT22;579;52.046;8.532;2022-07-24T01:40:30;17.50;1.00
1181;DHT22;579;52.046;8.532;2022-07-24T01:42:57;17.50;1.00
1181;DHT22;579;52.046;8.532;2022-07-24T01:45:23;17.40;1.00
1181;DHT22;579;52.046;8.532;2022-07-24T01:47:50;17.40;1.00
1181;DHT22;579;52.046;8.532;2022-07-24T01:52:39;17.50;1.00
1181;DHT22;579;52.046;8.532;2022-07-24T01:55:07;17.30;1.00
1181;DHT22;579;52.046;8.532;2022-07-24T01:57:34;17.30;1.00
1181;DHT22;579;52.046;8.532;2022-07-24T02:00:03;17.20;1.00
1181;DHT22;579;52.046;8.532;2022-07-24T02:02:32;17.10;1.00
1181;DHT22;579;52.046;8.532;2022-07-24T02:04:58;17.10;1.00
1181;DHT22;579;52.046;8.532;2022-07-24T02:07:24;17.10;1.00
1181;DHT22;579;52.046;8.532;2022-07-24T02:12:31;17.10;1.00
1181;DHT22;579;52.046;8.532;2022-07-24T02:14:57;17.10;1.00
1181;DHT22;579;52.046;8.532;2022-07-24T02:17:23;17.20;1.00
1181;DHT22;579;52.046;8.532;2022-07-24T02:19:50;17.20;1.00
1181;DHT22;579;52.046;8.532;2022-07-24T02:22:17;17.20;1.00
1181;DHT22;579;52.046;8.532;2022-07-24T02:24:43;17.30;1.00
1181;DHT22;579;52.046;8.532;2022-07-24T02:27:09;17.20;1.00
1181;DHT22;579;52.046;8.532;2022-07-24T02:32:15;17.10;1.00
1181;DHT22;579;52.046;8.532;2022-07-24T02:34:42;17.30;1.00
1181;DHT22;579;52.046;8.532;2022-07-24T02:37:08;17.10;1.00
1181;DHT22;579;52.046;8.532;2022-07-24T02:39:35;17.00;1.00
1181;DHT22;579;52.046;8.532;2022-07-24T02:42:01;17.20;1.00
1181;DHT22;579;52.046;8.532;2022-07-24T02:44:27;17.50;1.00
1181;DHT22;579;52.046;8.532;2022-07-24T02:46:53;17.30;1.00
1181;DHT22;579;52.046;8.532;2022-07-24T02:51:58;17.10;1.00
1181;DHT22;579;52.046;8.532;2022-07-24T02:54:24;17.10;1.00
1181;DHT22;579;52.046;8.532;2022-07-24T02:56:51;17.00;1.00
1181;DHT22;579;52.046;8.532;2022-07-24T02:59:17;16.90;1.00
1181;DHT22;579;52.046;8.532;2022-07-24T03:01:43;16.90;1.00
1181;DHT22;579;52.046;8.532;2022-07-24T03:04:10;17.10;1.00
1181;DHT22;579;52.046;8.532;2022-07-24T03:06:36;17.00;1.00
1181;DHT22;579;52.046;8.532;2022-07-24T03:11:40;16.90;1.00
1181;DHT22;579;52.046;8.532;2022-07-24T03:14:07;16.90;1.00
1181;DHT22;579;52.046;8.532;2022-07-24T03:16:33;16.90;1.00
1181;DHT22;579;52.046;8.532;2022-07-24T03:19:00;16.90;1.00
1181;DHT22;579;52.046;8.532;2022-07-24T03:21:26;16.90;1.00
1181;DHT22;579;52.046;8.532;2022-07-24T03:23:52;17.00;1.00
1181;DHT22;579;52.046;8.532;2022-07-24T03:26:19;16.90;1.00
1181;DHT22;579;52.046;8.532;2022-07-24T03:31:26;17.10;1.00
1181;DHT22;579;52.046;8.532;2022-07-24T03:33:52;17.20;1.00
1181;DHT22;579;52.046;8.532;2022-07-24T03:36:18;17.10;1.00
1181;DHT22;579;52.046;8.532;2022-07-24T03:38:45;17.10;1.00
1181;DHT22;579;52.046;8.532;2022-07-24T03:41:11;16.80;1.00
1181;DHT22;579;52.046;8.532;2022-07-24T03:43:38;16.80;1.00
1181;DHT22;579;52.046;8.532;2022-07-24T03:46:04;17.00;1.00
1181;DHT22;579;52.046;8.532;2022-07-24T03:51:11;17.00;1.00
1181;DHT22;579;52.046;8.532;2022-07-24T03:53:38;16.90;1.00
1181;DHT22;579;52.046;8.532;2022-07-24T03:56:05;16.90;1.00
1181;DHT22;579;52.046;8.532;2022-07-24T03:58:32;16.90;1.00
1181;DHT22;579;52.046;8.532;2022-07-24T04:00:58;16.90;1.00
1181;DHT22;579;52.046;8.532;2022-07-24T04:03:25;16.80;1.00
1181;DHT22;579;52.046;8.532;2022-07-24T04:05:53;16.90;1.00
1181;DHT22;579;52.046;8.532;2022-07-24T04:10:42;17.00;1.00
1181;DHT22;579;52.046;8.532;2022-07-24T04:13:08;17.20;1.00
1181;DHT22;579;52.046;8.532;2022-07-24T04:15:35;17.30;1.00
1181;DHT22;579;52.046;8.532;2022-07-24T04:18:02;17.50;1.00
1181;DHT22;579;52.046;8.532;2022-07-24T04:20:29;17.30;1.00
1181;DHT22;579;52.046;8.532;2022-07-24T04:22:55;17.30;1.00
1181;DHT22;579;52.046;8.532;2022-07-24T04:25:22;17.30;1.00
1181;DHT22;579;52.046;8.532;2022-07-24T04:31:13;17.60;1.00
1181;DHT22;579;52.046;8.532;2022-07-24T04:33:39;17.40;1.00
1181;DHT22;579;52.046;8.532;2022-07-24T04:36:06;17.50;1.00
1181;DHT22;579;52.046;8.532;2022-07-24T04:38:34;17.50;1.00
1181;DHT22;579;52.046;8.532;2022-07-24T04:41:01;17.40;1.00
1181;DHT22;579;52.046;8.532;2022-07-24T04:43:28;17.70;1.00
1181;DHT22;579;52.046;8.532;2022-07-24T04:45:55;17.60;1.00
1181;DHT22;579;52.046;8.532;2022-07-24T04:51:01;17.50;1.00
1181;DHT22;579;52.046;8.532;2022-07-24T04:53:27;17.70;1.00
1181;DHT22;579;52.046;8.532;2022-07-24T04:55:56;17.50;1.00
1181;DHT22;579;52.046;8.532;2022-07-24T04:58:24;17.70;1.00
1181;DHT22;579;52.046;8.532;2022-07-24T05:00:53;17.70;1.00
1181;DHT22;579;52.046;8.532;2022-07-24T05:03:20;17.60;1.00
1181;DHT22;579;52.046;8.532;2022-07-24T05:05:47;17.60;1.00
1181;DHT22;579;52.046;8.532;2022-07-24T05:08:27;17.80;1.00
1181;DHT22;579;52.046;8.532;2022-07-24T05:10:54;17.80;1.00
1181;DHT22;579;52.046;8.532;2022-07-24T05:13:20;17.90;1.00
1181;DHT22;579;52.046;8.532;2022-07-24T05:15:47;18.20;1.00
1181;DHT22;579;52.046;8.532;2022-07-24T05:18:14;18.20;1.00
1181;DHT22;579;52.046;8.532;2022-07-24T05:20:41;18.30;1.00
1181;DHT22;579;52.046;8.532;2022-07-24T05:23:08;18.40;1.00
1181;DHT22;579;52.046;8.532;2022-07-24T05:28:13;18.40;1.00
1181;DHT22;579;52.046;8.532;2022-07-24T05:30:40;18.50;1.00
1181;DHT22;579;52.046;8.532;2022-07-24T05:33:07;18.70;1.00
1181;DHT22;579;52.046;8.532;2022-07-24T05:35:33;18.70;1.00
1181;DHT22;579;52.046;8.532;2022-07-24T05:38:00;18.80;1.00
1181;DHT22;579;52.046;8.532;2022-07-24T05:40:27;19.00;1.00
1181;DHT22;579;52.046;8.532;2022-07-24T05:42:54;19.00;1.00
1181;DHT22;579;52.046;8.532;2022-07-24T05:48:00;19.30;1.00
1181;DHT22;579;52.046;8.532;2022-07-24T05:50:28;19.40;1.00
1181;DHT22;579;52.046;8.532;2022-07-24T05:52:58;19.60;1.00
1181;DHT22;579;52.046;8.532;2022-07-24T05:55:24;19.60;1.00
1181;DHT22;579;52.046;8.532;2022-07-24T05:57:51;19.80;1.00
1181;DHT22;579;52.046;8.532;2022-07-24T06:00:17;19.90;1.00
1181;DHT22;579;52.046;8.532;2022-07-24T06:02:45;19.90;1.00
1181;DHT22;579;52.046;8.532;2022-07-24T06:07:51;20.00;1.00
1181;DHT22;579;52.046;8.532;2022-07-24T06:10:17;20.20;1.00
1181;DHT22;579;52.046;8.532;2022-07-24T06:12:44;20.30;1.00
1181;DHT22;579;52.046;8.532;2022-07-24T06:15:11;20.40;1.00
1181;DHT22;579;52.046;8.532;2022-07-24T06:17:38;20.50;1.00
1181;DHT22;579;52.046;8.532;2022-07-24T06:20:05;20.70;1.00
1181;DHT22;579;52.046;8.532;2022-07-24T06:27:41;20.90;1.00
1181;DHT22;579;52.046;8.532;2022-07-24T06:30:12;21.20;1.00
1181;DHT22;579;52.046;8.532;2022-07-24T06:32:40;21.40;1.00
1181;DHT22;579;52.046;8.532;2022-07-24T06:35:08;21.50;1.00
1181;DHT22;579;52.046;8.532;2022-07-24T06:37:35;21.50;1.00
1181;DHT22;579;52.046;8.532;2022-07-24T06:40:03;21.50;1.00
1181;DHT22;579;52.046;8.532;2022-07-24T06:47:11;21.90;1.00
1181;DHT22;579;52.046;8.532;2022-07-24T06:49:38;22.10;1.00
1181;DHT22;579;52.046;8.532;2022-07-24T06:52:05;22.20;1.00
1181;DHT22;579;52.046;8.532;2022-07-24T06:54:31;22.10;1.00
1181;DHT22;579;52.046;8.532;2022-07-24T06:56:59;22.40;1.00
1181;DHT22;579;52.046;8.532;2022-07-24T06:59:25;22.60;1.00
1181;DHT22;579;52.046;8.532;2022-07-24T07:01:52;22.60;1.00
1181;DHT22;579;52.046;8.532;2022-07-24T07:06:59;22.80;1.00
1181;DHT22;579;52.046;8.532;2022-07-24T07:09:26;23.10;1.00
1181;DHT22;579;52.046;8.532;2022-07-24T07:11:52;23.10;1.00
1181;DHT22;579;52.046;8.532;2022-07-24T07:14:19;23.20;1.00
1181;DHT22;579;52.046;8.532;2022-07-24T07:16:46;23.20;1.00
1181;DHT22;579;52.046;8.532;2022-07-24T07:19:13;23.50;1.00
1181;DHT22;579;52.046;8.532;2022-07-24T07:21:41;23.70;1.00
1181;DHT22;579;52.046;8.532;2022-07-24T07:24:26;23.60;1.00
1181;DHT22;579;52.046;8.532;2022-07-24T07:26:54;23.40;1.00
1181;DHT22;579;52.046;8.532;2022-07-24T07:29:23;23.20;1.00
1181;DHT22;579;52.046;8.532;2022-07-24T07:31:50;23.40;1.00
1181;DHT22;579;52.046;8.532;2022-07-24T07:34:16;23.70;1.00
1181;DHT22;579;52.046;8.532;2022-07-24T07:36:44;24.10;1.00
1181;DHT22;579;52.046;8.532;2022-07-24T07:39:12;24.50;1.00
1181;DHT22;579;52.046;8.532;2022-07-24T07:44:13;24.80;1.00
1181;DHT22;579;52.046;8.532;2022-07-24T07:46:39;24.90;1.00
1181;DHT22;579;52.046;8.532;2022-07-24T07:49:06;24.90;1.00
1181;DHT22;579;52.046;8.532;2022-07-24T07:51:32;24.40;1.00
1181;DHT22;579;52.046;8.532;2022-07-24T07:53:59;24.60;1.00
1181;DHT22;579;52.046;8.532;2022-07-24T07:56:26;24.60;1.00
1181;DHT22;579;52.046;8.532;2022-07-24T07:58:56;24.70;1.00
1181;DHT22;579;52.046;8.532;2022-07-24T08:04:02;25.00;1.00
1181;DHT22;579;52.046;8.532;2022-07-24T08:06:29;25.60;1.00
1181;DHT22;579;52.046;8.532;2022-07-24T08:08:56;25.80;1.00
1181;DHT22;579;52.046;8.532;2022-07-24T08:11:23;25.90;1.00
1181;DHT22;579;52.046;8.532;2022-07-24T08:13:50;25.60;1.00
1181;DHT22;579;52.046;8.532;2022-07-24T08:16:17;25.80;1.00
1181;DHT22;579;52.046;8.532;2022-07-24T08:18:43;26.30;1.00
1181;DHT22;579;52.046;8.532;2022-07-24T08:23:43;26.40;1.00
1181;DHT22;579;52.046;8.532;2022-07-24T08:26:10;26.10;1.00
1181;DHT22;579;52.046;8.532;2022-07-24T08:28:39;26.10;1.00
1181;DHT22;579;52.046;8.532;2022-07-24T08:31:06;26.30;1.00
1181;DHT22;579;52.046;8.532;2022-07-24T08:33:33;26.50;1.00
1181;DHT22;579;52.046;8.532;2022-07-24T08:35:59;26.60;1.00
1181;DHT22;579;52.046;8.532;2022-07-24T08:38:26;26.70;1.00
1181;DHT22;579;52.046;8.532;2022-07-24T08:43:28;26.70;1.00
1181;DHT22;579;52.046;8.532;2022-07-24T08:45:55;27.30;1.00
1181;DHT22;579;52.046;8.532;2022-07-24T08:48:22;27.80;1.00
1181;DHT22;579;52.046;8.532;2022-07-24T08:50:50;28.00;1.00
1181;DHT22;579;52.046;8.532;2022-07-24T08:53:19;27.80;1.00
1181;DHT22;579;52.046;8.532;2022-07-24T08:55:46;28.00;1.00
1181;DHT22;579;52.046;8.532;2022-07-24T08:58:14;28.20;1.00
1181;DHT22;579;52.046;8.532;2022-07-24T09:03:10;28.40;1.00
1181;DHT22;579;52.046;8.532;2022-07-24T09:05:53;27.70;1.00
1181;DHT22;579;52.046;8.532;2022-07-24T09:08:20;27.70;1.00
1181;DHT22;579;52.046;8.532;2022-07-24T09:10:55;27.50;1.00
1181;DHT22;579;52.046;8.532;2022-07-24T09:13:26;27.60;1.00
1181;DHT22;579;52.046;8.532;2022-07-24T09:15:55;27.70;1.00
1181;DHT22;579;52.046;8.532;2022-07-24T09:21:13;27.80;1.00
1181;DHT22;579;52.046;8.532;2022-07-24T09:23:41;28.50;1.00
1181;DHT22;579;52.046;8.532;2022-07-24T09:26:09;28.60;1.00
1181;DHT22;579;52.046;8.532;2022-07-24T09:28:48;28.50;1.00
1181;DHT22;579;52.046;8.532;2022-07-24T09:31:16;28.60;1.00
1181;DHT22;579;52.046;8.532;2022-07-24T09:33:42;28.90;1.00
1181;DHT22;579;52.046;8.532;2022-07-24T09:38:53;28.70;1.00
1181;DHT22;579;52.046;8.532;2022-07-24T09:41:24;29.50;1.00
1181;DHT22;579;52.046;8.532;2022-07-24T09:44:01;29.50;1.00
1181;DHT22;579;52.046;8.532;2022-07-24T09:46:30;29.90;1.00
1181;DHT22;579;52.046;8.532;2022-07-24T09:48:58;29.70;1.00
1181;DHT22;579;52.046;8.532;2022-07-24T09:51:27;29.80;1.00
1181;DHT22;579;52.046;8.532;2022-07-24T09:56:36;30.00;1.00
1181;DHT22;579;52.046;8.532;2022-07-24T09:59:04;29.90;1.00
1181;DHT22;579;52.046;8.532;2022-07-24T10:01:34;29.60;1.00
1181;DHT22;579;52.046;8.532;2022-07-24T10:04:05;29.60;1.00
1181;DHT22;579;52.046;8.532;2022-07-24T10:06:36;29.70;1.00
1181;DHT22;579;52.046;8.532;2022-07-24T10:09:04;30.00;1.00
1181;DHT22;579;52.046;8.532;2022-07-24T10:16:26;29.80;1.00
1181;DHT22;579;52.046;8.532;2022-07-24T10:18:57;29.90;1.00
1181;DHT22;579;52.046;8.532;2022-07-24T10:21:26;30.40;1.00
1181;DHT22;579;52.046;8.532;2022-07-24T10:27:28;30.70;1.00
1181;DHT22;579;52.046;8.532;2022-07-24T10:29:59;30.80;1.00
1181;DHT22;579;52.046;8.532;2022-07-24T10:35:43;30.80;1.00
1181;DHT22;579;52.046;8.532;2022-07-24T10:38:14;30.50;1.00
1181;DHT22;579;52.046;8.532;2022-07-24T10:40:49;30.60;1.00
1181;DHT22;579;52.046;8.532;2022-07-24T10:43:17;30.40;1.00
1181;DHT22;579;52.046;8.532;2022-07-24T10:46:09;30.30;1.00
1181;DHT22;579;52.046;8.532;2022-07-24T10:48:37;30.60;1.00
1181;DHT22;579;52.046;8.532;2022-07-24T10:55:43;30.90;1.00
1181;DHT22;579;52.046;8.532;2022-07-24T10:58:13;31.00;1.00
1181;DHT22;579;52.046;8.532;2022-07-24T11:00:46;31.10;1.00
1181;DHT22;579;52.046;8.532;2022-07-24T11:03:21;31.20;1.00
1181;DHT22;579;52.046;8.532;2022-07-24T11:06:06;31.30;1.00
1181;DHT22;579;52.046;8.532;2022-07-24T11:08:37;31.30;1.00
1181;DHT22;579;52.046;8.532;2022-07-24T11:22:05;31.70;1.00
1181;DHT22;579;52.046;8.532;2022-07-24T11:24:33;31.90;1.00
1181;DHT22;579;52.046;8.532;2022-07-24T11:27:04;32.00;1.00
1181;DHT22;579;52.046;8.532;2022-07-24T11:33:19;32.20;1.00
1181;DHT22;579;52.046;8.532;2022-07-24T11:35:47;32.80;1.00
1181;DHT22;579;52.046;8.532;2022-07-24T11:38:14;32.90;1.00
1181;DHT22;579;52.046;8.532;2022-07-24T11:40:41;32.50;1.00
1181;DHT22;579;52.046;8.532;2022-07-24T11:43:08;32.10;1.00
1181;DHT22;579;52.046;8.532;2022-07-24T11:45:36;31.50;1.00
1181;DHT22;579;52.046;8.532;2022-07-24T11:50:42;31.00;1.00
1181;DHT22;579;52.046;8.532;2022-07-24T11:53:09;31.00;1.00
1181;DHT22;579;52.046;8.532;2022-07-24T11:55:36;30.90;1.00
1181;DHT22;579;52.046;8.532;2022-07-24T11:58:03;30.70;1.00
1181;DHT22;579;52.046;8.532;2022-07-24T12:00:30;30.70;1.00
1181;DHT22;579;52.046;8.532;2022-07-24T12:02:57;30.90;1.00
1181;DHT22;579;52.046;8.532;2022-07-24T12:05:27;30.70;1.00
1181;DHT22;579;52.046;8.532;2022-07-24T12:10:35;30.50;1.00
1181;DHT22;579;52.046;8.532;2022-07-24T12:13:01;30.70;1.00
1181;DHT22;579;52.046;8.532;2022-07-24T12:15:28;31.10;1.00
1181;DHT22;579;52.046;8.532;2022-07-24T12:17:57;31.40;1.00
1181;DHT22;579;52.046;8.532;2022-07-24T12:20:26;31.50;1.00
1181;DHT22;579;52.046;8.532;2022-07-24T12:22:54;31.40;1.00
1181;DHT22;579;52.046;8.532;2022-07-24T12:25:22;31.10;1.00
1181;DHT22;579;52.046;8.532;2022-07-24T12:30:30;31.10;1.00
1181;DHT22;579;52.046;8.532;2022-07-24T12:33:02;31.30;1.00
1181;DHT22;579;52.046;8.532;2022-07-24T12:35:31;31.20;1.00
1181;DHT22;579;52.046;8.532;2022-07-24T12:38:00;31.10;1.00
1181;DHT22;579;52.046;8.532;2022-07-24T12:40:31;31.10;1.00
1181;DHT22;579;52.046;8.532;2022-07-24T12:43:07;31.10;1.00
1181;DHT22;579;52.046;8.532;2022-07-24T12:45:36;31.30;1.00
1181;DHT22;579;52.046;8.532;2022-07-24T12:50:40;31.50;1.00
1181;DHT22;579;52.046;8.532;2022-07-24T12:53:08;31.50;1.00
1181;DHT22;579;52.046;8.532;2022-07-24T12:55:35;31.30;1.00
1181;DHT22;579;52.046;8.532;2022-07-24T12:58:03;31.10;1.00
1181;DHT22;579;52.046;8.532;2022-07-24T13:00:31;31.40;1.00
1181;DHT22;579;52.046;8.532;2022-07-24T13:02:57;31.30;1.00
1181;DHT22;579;52.046;8.532;2022-07-24T13:10:39;30.80;1.00
1181;DHT22;579;52.046;8.532;2022-07-24T13:13:07;30.90;1.00
1181;DHT22;579;52.046;8.532;2022-07-24T13:15:33;31.00;1.00
1181;DHT22;579;52.046;8.532;2022-07-24T13:18:00;31.20;1.00
1181;DHT22;579;52.046;8.532;2022-07-24T13:20:27;31.00;1.00
1181;DHT22;579;52.046;8.532;2022-07-24T13:22:54;31.00;1.00
1181;DHT22;579;52.046;8.532;2022-07-24T13:25:20;31.10;1.00
1181;DHT22;579;52.046;8.532;2022-07-24T13:31:14;31.10;1.00
1181;DHT22;579;52.046;8.532;2022-07-24T13:33:40;30.90;1.00
1181;DHT22;579;52.046;8.532;2022-07-24T13:36:07;31.30;1.00
1181;DHT22;579;52.046;8.532;2022-07-24T13:38:34;30.90;1.00
1181;DHT22;579;52.046;8.532;2022-07-24T13:41:01;31.10;1.00
1181;DHT22;579;52.046;8.532;2022-07-24T13:43:28;31.20;1.00
1181;DHT22;579;52.046;8.532;2022-07-24T13:45:55;31.30;1.00
1181;DHT22;579;52.046;8.532;2022-07-24T13:51:08;31.30;1.00
1181;DHT22;579;52.046;8.532;2022-07-24T13:53:35;31.00;1.00
1181;DHT22;579;52.046;8.532;2022-07-24T13:56:04;31.20;1.00
1181;DHT22;579;52.046;8.532;2022-07-24T13:58:31;31.20;1.00
1181;DHT22;579;52.046;8.532;2022-07-24T14:00:59;30.90;1.00
1181;DHT22;579;52.046;8.532;2022-07-24T14:03:26;31.00;1.00
1181;DHT22;579;52.046;8.532;2022-07-24T14:05:53;31.10;1.00
1181;DHT22;579;52.046;8.532;2022-07-24T14:11:09;31.20;1.00
1181;DHT22;579;52.046;8.532;2022-07-24T14:13:35;31.80;1.00
1181;DHT22;579;52.046;8.532;2022-07-24T14:16:03;31.80;1.00
1181;DHT22;579;52.046;8.532;2022-07-24T14:18:30;32.20;1.00
1181;DHT22;579;52.046;8.532;2022-07-24T14:20:57;32.10;1.00
1181;DHT22;579;52.046;8.532;2022-07-24T14:23:23;32.10;1.00
1181;DHT22;579;52.046;8.532;2022-07-24T14:25:50;32.50;1.00
1181;DHT22;579;52.046;8.532;2022-07-24T14:30:54;32.50;1.00
1181;DHT22;579;52.046;8.532;2022-07-24T14:33:21;32.90;1.00
1181;DHT22;579;52.046;8.532;2022-07-24T14:35:48;33.00;1.00
1181;DHT22;579;52.046;8.532;2022-07-24T14:38:15;33.10;1.00
1181;DHT22;579;52.046;8.532;2022-07-24T14:40:42;34.00;1.00
1181;DHT22;579;52.046;8.532;2022-07-24T14:43:09;34.60;1.00
1181;DHT22;579;52.046;8.532;2022-07-24T14:45:37;35.40;1.00
1181;DHT22;579;52.046;8.532;2022-07-24T14:50:42;36.50;1.00
1181;DHT22;579;52.046;8.532;2022-07-24T14:53:09;40.10;1.00
1181;DHT22;579;52.046;8.532;2022-07-24T14:55:35;41.70;1.00
1181;DHT22;579;52.046;8.532;2022-07-24T14:58:02;43.20;1.00
1181;DHT22;579;52.046;8.532;2022-07-24T15:00:29;44.40;1.00
1181;DHT22;579;52.046;8.532;2022-07-24T15:02:56;44.90;1.00
1181;DHT22;579;52.046;8.532;2022-07-24T15:05:23;44.20;1.00
1181;DHT22;579;52.046;8.532;2022-07-24T15:10:30;44.20;1.00
1181;DHT22;579;52.046;8.532;2022-07-24T15:12:57;45.10;1.00
1181;DHT22;579;52.046;8.532;2022-07-24T15:15:27;44.80;1.00
1181;DHT22;579;52.046;8.532;2022-07-24T15:17:56;45.20;1.00
1181;DHT22;579;52.046;8.532;2022-07-24T15:20:23;45.80;1.00
1181;DHT22;579;52.046;8.532;2022-07-24T15:22:50;45.70;1.00
1181;DHT22;579;52.046;8.532;2022-07-24T15:25:16;45.00;1.00
1181;DHT22;579;52.046;8.532;2022-07-24T15:30:21;45.10;1.00
1181;DHT22;579;52.046;8.532;2022-07-24T15:32:48;45.80;1.00
1181;DHT22;579;52.046;8.532;2022-07-24T15:35:14;45.80;1.00
1181;DHT22;579;52.046;8.532;2022-07-24T15:37:41;45.40;1.00
1181;DHT22;579;52.046;8.532;2022-07-24T15:40:09;45.00;1.00
1181;DHT22;579;52.046;8.532;2022-07-24T15:42:36;43.40;1.00
1181;DHT22;579;52.046;8.532;2022-07-24T15:50:11;38.90;1.00
1181;DHT22;579;52.046;8.532;2022-07-24T15:52:38;37.10;1.00
1181;DHT22;579;52.046;8.532;2022-07-24T15:55:06;36.40;1.00
1181;DHT22;579;52.046;8.532;2022-07-24T15:57:33;35.70;1.00
1181;DHT22;579;52.046;8.532;2022-07-24T16:00:00;34.90;1.00
1181;DHT22;579;52.046;8.532;2022-07-24T16:02:26;34.20;1.00
1181;DHT22;579;52.046;8.532;2022-07-24T16:04:53;33.80;1.00
1181;DHT22;579;52.046;8.532;2022-07-24T16:10:00;33.40;1.00
1181;DHT22;579;52.046;8.532;2022-07-24T16:12:27;33.20;1.00
1181;DHT22;579;52.046;8.532;2022-07-24T16:14:54;32.80;1.00
1181;DHT22;579;52.046;8.532;2022-07-24T16:17:20;32.60;1.00
1181;DHT22;579;52.046;8.532;2022-07-24T16:19:47;32.80;1.00
1181;DHT22;579;52.046;8.532;2022-07-24T16:22:14;32.30;1.00
1181;DHT22;579;52.046;8.532;2022-07-24T16:24:41;32.10;1.00
1181;DHT22;579;52.046;8.532;2022-07-24T16:29:54;32.20;1.00
1181;DHT22;579;52.046;8.532;2022-07-24T16:32:21;32.00;1.00
1181;DHT22;579;52.046;8.532;2022-07-24T16:34:48;32.00;1.00
1181;DHT22;579;52.046;8.532;2022-07-24T16:37:15;32.00;1.00
1181;DHT22;579;52.046;8.532;2022-07-24T16:39:42;31.70;1.00
1181;DHT22;579;52.046;8.532;2022-07-24T16:42:09;31.60;1.00
1181;DHT22;579;52.046;8.532;2022-07-24T16:44:37;31.60;1.00
1181;DHT22;579;52.046;8.532;2022-07-24T16:49:44;31.60;1.00
1181;DHT22;579;52.046;8.532;2022-07-24T16:52:10;31.90;1.00
1181;DHT22;579;52.046;8.532;2022-07-24T16:54:38;32.40;1.00
1181;DHT22;579;52.046;8.532;2022-07-24T16:57:05;31.90;1.00
1181;DHT22;579;52.046;8.532;2022-07-24T16:59:32;31.60;1.00
1181;DHT22;579;52.046;8.532;2022-07-24T17:01:58;31.80;1.00
1181;DHT22;579;52.046;8.532;2022-07-24T17:04:25;31.90;1.00
1181;DHT22;579;52.046;8.532;2022-07-24T17:09:32;32.20;1.00
1181;DHT22;579;52.046;8.532;2022-07-24T17:11:58;31.70;1.00
1181;DHT22;579;52.046;8.532;2022-07-24T17:14:25;31.70;1.00
1181;DHT22;579;52.046;8.532;2022-07-24T17:16:53;31.80;1.00
1181;DHT22;579;52.046;8.532;2022-07-24T17:19:20;31.50;1.00
1181;DHT22;579;52.046;8.532;2022-07-24T17:21:57;31.30;1.00
1181;DHT22;579;52.046;8.532;2022-07-24T17:29:38;31.40;1.00
1181;DHT22;579;52.046;8.532;2022-07-24T17:32:14;31.40;1.00
1181;DHT22;579;52.046;8.532;2022-07-24T17:34:47;31.40;1.00
1181;DHT22;579;52.046;8.532;2022-07-24T17:37:22;31.30;1.00
1181;DHT22;579;52.046;8.532;2022-07-24T17:40:03;31.30;1.00
1181;DHT22;579;52.046;8.532;2022-07-24T17:42:55;31.00;1.00
1181;DHT22;579;52.046;8.532;2022-07-24T17:45:30;31.40;1.00
1181;DHT22;579;52.046;8.532;2022-07-24T17:48:28;31.30;1.00
1181;DHT22;579;52.046;8.532;2022-07-24T17:56:03;30.80;1.00
1181;DHT22;579;52.046;8.532;2022-07-24T17:58:31;31.20;1.00
1181;DHT22;579;52.046;8.532;2022-07-24T18:00:57;31.30;1.00
1181;DHT22;579;52.046;8.532;2022-07-24T18:03:24;31.20;1.00
1181;DHT22;579;52.046;8.532;2022-07-24T18:05:50;31.20;1.00
1181;DHT22;579;52.046;8.532;2022-07-24T18:08:17;31.10;1.00
1181;DHT22;579;52.046;8.532;2022-07-24T18:10:44;30.70;1.00
1181;DHT22;579;52.046;8.532;2022-07-24T18:13:44;30.70;1.00
1181;DHT22;579;52.046;8.532;2022-07-24T18:16:11;30.60;1.00
1181;DHT22;579;52.046;8.532;2022-07-24T18:18:38;31.10;1.00
1181;DHT22;579;52.046;8.532;2022-07-24T18:21:05;30.90;1.00
1181;DHT22;579;52.046;8.532;2022-07-24T18:23:32;30.60;1.00
1181;DHT22;579;52.046;8.532;2022-07-24T18:25:59;30.80;1.00
1181;DHT22;579;52.046;8.532;2022-07-24T18:28:25;31.10;1.00
1181;DHT22;579;52.046;8.532;2022-07-24T18:33:29;31.20;1.00
1181;DHT22;579;52.046;8.532;2022-07-24T18:35:57;31.00;1.00
1181;DHT22;579;52.046;8.532;2022-07-24T18:38:24;30.60;1.00
1181;DHT22;579;52.046;8.532;2022-07-24T18:40:50;30.40;1.00
1181;DHT22;579;52.046;8.532;2022-07-24T18:43:17;30.40;1.00
1181;DHT22;579;52.046;8.532;2022-07-24T18:45:43;30.50;1.00
1181;DHT22;579;52.046;8.532;2022-07-24T18:48:10;30.50;1.00
1181;DHT22;579;52.046;8.532;2022-07-24T18:53:31;30.40;1.00
1181;DHT22;579;52.046;8.532;2022-07-24T18:55:58;30.10;1.00
1181;DHT22;579;52.046;8.532;2022-07-24T18:58:24;30.00;1.00
1181;DHT22;579;52.046;8.532;2022-07-24T19:00:51;29.90;1.00
1181;DHT22;579;52.046;8.532;2022-07-24T19:03:17;29.80;1.00
1181;DHT22;579;52.046;8.532;2022-07-24T19:05:44;29.70;1.00
1181;DHT22;579;52.046;8.532;2022-07-24T19:08:11;29.60;1.00
1181;DHT22;579;52.046;8.532;2022-07-24T19:13:15;29.50;1.00
1181;DHT22;579;52.046;8.532;2022-07-24T19:15:41;29.30;1.00
1181;DHT22;579;52.046;8.532;2022-07-24T19:18:08;29.20;1.00
1181;DHT22;579;52.046;8.532;2022-07-24T19:20:35;29.10;1.00
1181;DHT22;579;52.046;8.532;2022-07-24T19:23:01;29.00;1.00
1181;DHT22;579;52.046;8.532;2022-07-24T19:25:28;28.90;1.00
1181;DHT22;579;52.046;8.532;2022-07-24T19:27:54;28.70;1.00
1181;DHT22;579;52.046;8.532;2022-07-24T19:34:15;28.60;1.00
1181;DHT22;579;52.046;8.532;2022-07-24T19:36:42;28.40;1.00
1181;DHT22;579;52.046;8.532;2022-07-24T19:39:08;28.30;1.00
1181;DHT22;579;52.046;8.532;2022-07-24T19:41:35;28.20;1.00
1181;DHT22;579;52.046;8.532;2022-07-24T19:44:01;28.10;1.00